Time;durP1;ratioP1;P1;durP2;ratioP2;P2;SDS_P1;SDS_P2;PMS_P1;PMS_P2;Temp;Humidity;BMP_temperature;BMP_pressure;BME280_temperature;BME280_humidity;BME280_pressure;Samples;Min_cycle;Max_cycle;Signal;HPM_P1;HPM_P2
2023/06/20 00:02:22;;;;;;;12.35;10.32;;;16.20;99.90;;;16.53;100.00;100610.81;5002798;28;20084;-77
2023/06/20 00:04:49;;;;;;;11.52;10.32;;;16.30;99.90;;;16.58;100.00;100618.31;4993531;28;20062;-78
2023/06/20 00:07:15;;;;;;;11.50;10.20;;;16.30;99.90;;;16.47;100.00;100614.63;5006072;28;20042;-78
2023/06/20 00:09:40;;;;;;;11.88;10.30;;;16.20;99.90;;;16.37;100.00;100614.47;4997101;28;20108;-78
2023/06/20 00:12:07;;;;;;;12.02;10.20;;;16.20;99.90;;;16.30;100.00;100617.41;4993194;28;20113;-77
2023/06/20 00:14:32;;;;;;;12.75;11.45;;;16.10;99.90;;;16.30;100.00;100620.16;4995595;28;20042;-78
2023/06/20 00:16:59;;;;;;;13.20;11.18;;;16.00;99.90;;;16.34;100.00;100626.00;5000632;28;20100;-77
2023/06/20 00:19:26;;;;;;;13.70;11.60;;;16.10;99.90;;;16.39;100.00;100632.41;4999681;28;20379;-78
2023/06/20 00:21:52;;;;;;;14.02;12.63;;;16.10;99.90;;;16.41;100.00;100621.13;4993651;28;20049;-78
2023/06/20 00:24:17;;;;;;;13.05;11.75;;;16.20;99.90;;;16.44;100.00;100617.03;5002349;28;20038;-77
2023/06/20 00:26:43;;;;;;;13.57;11.48;;;16.20;99.90;;;16.45;100.00;100616.78;5006423;28;20057;-78
2023/06/20 00:29:09;;;;;;;13.18;11.77;;;16.20;99.90;;;16.39;100.00;100609.53;4996508;28;20047;-78
2023/06/20 00:31:36;;;;;;;12.60;11.30;;;16.10;99.90;;;16.35;100.00;100614.75;4993420;28;20038;-77
2023/06/20 00:34:02;;;;;;;13.98;12.43;;;16.10;99.90;;;16.34;100.00;100620.50;5000937;28;20034;-78
2023/06/20 00:36:28;;;;;;;13.90;12.48;;;16.10;99.90;;;16.29;100.00;100621.25;5000637;28;20034;-77
2023/06/20 00:38:55;;;;;;;13.48;12.07;;;16.00;99.90;;;16.29;100.00;100621.25;4998612;28;20037;-78
2023/06/20 00:41:22;;;;;;;14.70;13.15;;;16.00;99.90;;;16.28;100.00;100618.78;5002595;28;20060;-78
2023/06/20 00:43:50;;;;;;;12.82;11.35;;;16.00;99.90;;;16.22;100.00;100609.63;4987787;28;20064;-78
2023/06/20 00:46:22;;;;;;;13.15;11.88;;;16.00;99.90;;;16.19;100.00;100610.13;4995256;28;20068;-78
2023/06/20 00:48:48;;;;;;;13.75;12.23;;;16.00;99.90;;;16.05;100.00;100587.66;5011493;28;20056;-77
2023/06/20 00:51:16;;;;;;;13.68;12.27;;;16.00;99.90;;;16.19;100.00;100601.88;4989085;28;20034;-78
2023/06/20 00:53:43;;;;;;;14.02;12.63;;;16.00;99.90;;;16.21;100.00;100596.94;4994289;28;20547;-77
2023/06/20 00:56:13;;;;;;;15.15;13.65;;;16.00;99.90;;;16.22;100.00;100595.84;4991424;28;20157;-77
2023/06/20 00:58:41;;;;;;;14.95;13.10;;;16.00;99.90;;;16.27;100.00;100595.09;4973841;28;20046;-77
2023/06/20 01:01:06;;;;;;;18.08;15.15;;;16.10;99.90;;;16.24;100.00;100588.16;4998965;28;20110;-77
2023/06/20 01:03:36;;;;;;;18.60;13.88;;;16.10;99.90;;;16.35;100.00;100589.13;4993744;28;20048;-77
2023/06/20 01:06:24;;;;;;;15.93;14.23;;;16.20;99.90;;;16.43;100.00;100599.69;5000494;28;20052;-77
2023/06/20 01:09:50;;;;;;;14.43;12.93;;;16.20;99.90;;;16.46;100.00;100598.34;4999384;28;20038;-78
2023/06/20 01:12:32;;;;;;;14.88;13.38;;;16.30;99.90;;;16.45;100.00;100599.44;4996111;28;20035;-78
2023/06/20 01:15:30;;;;;;;16.83;14.02;;;16.20;99.90;;;16.48;100.00;100597.00;5002066;28;20038;-77
2023/06/20 01:18:33;;;;;;;15.77;14.18;;;16.30;99.90;;;16.54;100.00;100593.22;4975926;28;20046;-77
2023/06/20 01:21:07;;;;;;;15.90;13.85;;;16.30;99.90;;;16.60;100.00;100588.59;4985381;28;20042;-77
2023/06/20 01:23:43;;;;;;;15.82;14.20;;;16.40;99.90;;;16.72;100.00;100593.13;4999874;28;20034;-77
2023/06/20 01:26:45;;;;;;;16.30;14.43;;;16.50;99.90;;;16.81;100.00;100597.91;4997209;28;20034;-77
2023/06/20 01:29:24;;;;;;;15.48;13.73;;;16.60;99.90;;;16.83;100.00;100605.88;5000597;28;20038;-77
2023/06/20 01:31:54;;;;;;;;;;;16.60;99.90;;;16.79;100.00;100602.84;4985267;28;20038;-77
2023/06/20 01:34:32;;;;;;;17.15;13.98;;;16.60;99.90;;;16.81;100.00;100595.16;4987387;28;19921;-77
2023/06/20 01:37:02;;;;;;;15.95;14.18;;;16.60;99.90;;;16.77;100.00;100591.25;5004170;28;20057;-77
2023/06/20 01:39:36;;;;;;;16.15;14.43;;;16.60;99.90;;;16.82;100.00;100593.22;4999569;28;20135;-78
2023/06/20 01:42:04;;;;;;;16.08;14.48;;;16.60;99.90;;;16.83;100.00;100595.72;5004860;28;20034;-77
2023/06/20 01:44:33;;;;;;;15.18;13.57;;;16.70;99.90;;;16.83;100.00;100603.97;4999370;28;20512;-77
2023/06/20 01:47:03;;;;;;;16.70;13.90;;;16.60;99.90;;;16.79;100.00;100590.97;4975769;28;20038;-77
2023/06/20 01:49:31;;;;;;;15.65;14.05;;;16.60;99.90;;;16.75;100.00;100593.44;4986443;28;20125;-77
2023/06/20 01:51:58;;;;;;;;;;;16.60;99.90;;;16.80;100.00;100598.16;4993662;28;20030;-77
2023/06/20 01:54:28;;;;;;;17.00;13.68;;;16.60;99.90;;;16.76;100.00;100597.00;4980962;28;20045;-78
2023/06/20 01:56:57;;;;;;;14.85;13.30;;;16.60;99.90;;;16.68;100.00;100590.88;4992823;28;20087;-77
2023/06/20 01:59:26;;;;;;;14.60;12.88;;;16.50;99.90;;;16.60;100.00;100585.84;4987000;28;20541;-77
2023/06/20 02:01:54;;;;;;;15.85;14.15;;;16.50;99.90;;;16.56;100.00;100583.88;4992019;28;20135;-77
2023/06/20 02:04:23;;;;;;;17.38;14.63;;;16.40;99.90;;;16.48;100.00;100586.00;4989629;28;20042;-77
2023/06/20 02:06:50;;;;;;;15.77;14.18;;;16.30;99.90;;;16.44;100.00;100584.81;4996615;28;20038;-77
2023/06/20 02:09:17;;;;;;;18.50;15.67;;;16.30;99.90;;;16.47;100.00;100577.97;4999367;28;20518;-76
2023/06/20 02:11:45;;;;;;;18.67;15.70;;;16.30;99.90;;;16.47;100.00;100584.34;4996491;28;20184;-76
2023/06/20 02:14:13;;;;;;;16.92;14.73;;;16.30;99.90;;;16.53;100.00;100587.94;5005823;28;20084;-76
2023/06/20 02:16:40;;;;;;;17.58;15.63;;;16.30;99.90;;;16.53;100.00;100588.78;4994944;28;20038;-77
2023/06/20 02:19:07;;;;;;;16.50;14.73;;;16.30;99.90;;;16.52;100.00;100580.78;4997563;28;20038;-77
2023/06/20 02:21:37;;;;;;;16.60;14.93;;;16.40;99.90;;;16.62;100.00;100585.56;5002659;28;20132;-77
2023/06/20 02:24:06;;;;;;;16.92;14.38;;;16.50;99.90;;;16.64;100.00;100573.22;4978971;28;20034;-77
2023/06/20 02:26:38;;;;;;;14.98;13.15;;;16.50;99.90;;;16.65;100.00;100576.78;4992492;28;20038;-77
2023/06/20 02:29:09;;;;;;;18.20;16.27;;;16.40;99.90;;;16.65;100.00;100560.25;5002808;28;20036;-77
2023/06/20 02:31:47;;;;;;;17.15;15.35;;;16.40;99.90;;;16.69;100.00;100566.91;4998500;28;20048;-77
2023/06/20 02:34:21;;;;;;;17.35;15.23;;;16.40;99.90;;;16.66;100.00;100572.94;5003951;28;20046;-78
2023/06/20 02:36:48;;;;;;;17.67;14.30;;;16.40;99.90;;;16.64;100.00;100572.38;4984484;28;20034;-78
2023/06/20 02:39:14;;;;;;;20.33;16.27;;;16.40;99.90;;;16.68;100.00;100574.34;5000689;28;20500;-77
2023/06/20 02:41:43;;;;;;;18.45;16.38;;;16.40;99.90;;;16.71;100.00;100575.78;5004969;28;20609;-77
2023/06/20 02:44:09;;;;;;;18.98;15.70;;;16.50;99.90;;;16.74;100.00;100578.00;4998499;28;20425;-77
2023/06/20 02:46:54;;;;;;;20.80;15.63;;;16.50;99.90;;;16.79;100.00;100579.97;4976162;28;20026;-77
2023/06/20 02:49:56;;;;;;;18.90;15.98;;;16.60;99.90;;;16.93;100.00;100574.84;4991672;28;20049;-77
2023/06/20 02:52:48;;;;;;;19.23;16.33;;;16.70;99.90;;;17.03;100.00;100579.66;5003221;28;20041;-77
2023/06/20 02:55:44;;;;;;;17.85;15.80;;;16.80;99.90;;;17.11;100.00;100580.03;4987333;28;20038;-77
2023/06/20 02:58:14;;;;;;;18.75;16.17;;;16.90;99.90;;;17.19;100.00;100584.22;4991556;28;20069;-78
2023/06/20 03:00:52;;;;;;;16.75;14.95;;;17.00;99.90;;;17.21;100.00;100583.94;4975386;28;20486;-78
2023/06/20 03:03:39;;;;;;;17.40;15.60;;;17.10;99.90;;;17.22;100.00;100585.59;5004259;28;20038;-78
2023/06/20 03:06:09;;;;;;;17.42;14.73;;;17.10;99.90;;;17.27;100.00;100585.69;5003348;28;20391;-78
2023/06/20 03:08:43;;;;;;;17.98;15.98;;;17.10;99.90;;;17.30;100.00;100590.66;4995426;28;20040;-78
2023/06/20 03:11:09;;;;;;;17.52;14.82;;;17.20;99.90;;;17.26;100.00;100578.50;5002763;28;20030;-78
2023/06/20 03:13:36;;;;;;;16.15;14.32;;;17.10;99.90;;;17.30;100.00;100590.66;5007233;28;20037;-77
2023/06/20 03:16:01;;;;;;;15.65;13.90;;;17.10;99.90;;;17.32;100.00;100584.88;5003512;28;20460;-78
2023/06/20 03:18:29;;;;;;;18.88;14.57;;;17.10;99.90;;;17.33;100.00;100592.03;5004338;28;20042;-78
2023/06/20 03:20:55;;;;;;;17.45;14.32;;;17.10;99.90;;;17.33;100.00;100592.03;4988262;28;20034;-77
2023/06/20 03:23:23;;;;;;;16.83;13.82;;;17.10;99.90;;;17.33;100.00;100592.03;4999542;28;20048;-78
2023/06/20 03:25:49;;;;;;;16.35;13.88;;;17.10;99.90;;;17.34;100.00;100601.97;4990663;28;20491;-77
2023/06/20 03:28:15;;;;;;;16.83;14.18;;;17.10;99.90;;;17.33;100.00;100598.41;4984015;28;20486;-80
2023/06/20 03:30:45;;;;;;;15.50;13.90;;;17.10;99.90;;;17.34;100.00;100593.69;4993653;28;20035;-77
2023/06/20 03:33:11;;;;;;;17.15;14.93;;;17.10;99.90;;;17.37;100.00;100596.78;5006723;28;20040;-77
2023/06/20 03:35:37;;;;;;;17.45;14.95;;;17.10;99.90;;;17.38;100.00;100592.91;4981206;28;20037;-76
2023/06/20 03:38:03;;;;;;;17.38;15.15;;;17.20;99.90;;;17.46;100.00;100588.84;4993533;28;20041;-77
2023/06/20 03:40:29;;;;;;;17.00;15.02;;;17.20;99.90;;;17.55;100.00;100589.19;5003729;28;20409;-77
2023/06/20 03:42:56;;;;;;;19.38;15.82;;;17.30;99.90;;;17.66;100.00;100585.38;4999116;28;20283;-77
2023/06/20 03:45:22;;;;;;;18.23;14.68;;;17.40;99.90;;;17.74;100.00;100584.06;4990253;28;20478;-76
2023/06/20 03:47:49;;;;;;;16.95;14.48;;;17.50;99.90;;;17.82;100.00;100583.56;5002794;28;20034;-76
2023/06/20 03:50:15;;;;;;;16.63;13.50;;;17.60;99.90;;;17.90;100.00;100586.88;4991336;28;20048;-78
2023/06/20 03:52:42;;;;;;;19.60;15.73;;;17.70;99.90;;;17.92;100.00;100584.72;5000404;28;20058;-77
2023/06/20 03:55:08;;;;;;;18.67;15.23;;;17.70;99.90;;;17.94;100.00;100588.84;4969506;28;20504;-76
2023/06/20 03:57:35;;;;;;;16.83;15.07;;;17.70;99.90;;;17.97;100.00;100588.31;4980115;28;20038;-77
2023/06/20 04:00:12;;;;;;;19.27;16.52;;;17.80;99.90;;;18.01;100.00;100590.53;4985090;28;20026;-78
2023/06/20 04:02:41;;;;;;;22.95;17.70;;;17.80;99.90;;;18.03;100.00;100593.88;4978305;28;20066;-77
2023/06/20 04:05:09;;;;;;;21.17;17.27;;;17.90;99.90;;;18.11;100.00;100599.72;4990010;28;20027;-78
2023/06/20 04:07:42;;;;;;;20.02;17.63;;;17.90;99.90;;;18.21;100.00;100595.38;5001100;28;20091;-78
2023/06/20 04:10:12;;;;;;;19.15;17.15;;;17.90;99.90;;;18.19;100.00;100578.25;5000471;28;20033;-78
2023/06/20 04:12:41;;;;;;;18.98;16.98;;;18.10;99.90;;;18.38;100.00;100593.22;4998655;28;20025;-78
2023/06/20 04:15:08;;;;;;;19.85;16.25;;;18.20;99.90;;;18.47;100.00;100604.56;4981445;28;20509;-77
2023/06/20 04:17:37;;;;;;;18.83;16.23;;;18.20;99.90;;;18.55;100.00;100587.47;4993771;28;20061;-77
2023/06/20 04:20:10;;;;;;;18.58;15.27;;;18.40;99.90;;;18.68;100.00;100599.13;5000417;28;20112;-77
2023/06/20 04:22:36;;;;;;;17.08;15.32;;;18.40;99.90;;;18.74;100.00;100611.00;4994204;28;20054;-77
2023/06/20 04:25:02;;;;;;;17.52;15.55;;;18.50;99.90;;;18.82;100.00;100625.09;4994111;28;20125;-76
2023/06/20 04:27:28;;;;;;;16.35;14.73;;;18.60;99.90;;;18.87;100.00;100618.78;4992588;28;20125;-77
2023/06/20 04:29:57;;;;;;;17.52;15.27;;;18.60;99.90;;;18.96;100.00;100616.31;5004271;28;20033;-76
2023/06/20 04:32:23;;;;;;;18.90;15.65;;;18.70;99.90;;;19.04;100.00;100614.97;4992969;28;20482;-76
2023/06/20 04:34:52;;;;;;;18.90;15.32;;;18.80;99.90;;;19.09;100.00;100621.31;4983896;28;20407;-76
2023/06/20 04:37:19;;;;;;;20.35;16.23;;;18.80;99.90;;;19.23;100.00;100626.31;4993782;28;20076;-76
2023/06/20 04:39:45;;;;;;;18.02;16.20;;;19.00;99.90;;;19.28;100.00;100609.72;4989966;28;20117;-75
2023/06/20 04:42:10;;;;;;;16.77;14.88;;;19.00;99.90;;;19.39;100.00;100610.53;4987889;28;20461;-75
2023/06/20 04:44:36;;;;;;;16.38;14.55;;;19.20;99.90;;;19.53;100.00;100619.09;4973349;28;20034;-76
2023/06/20 04:47:03;;;;;;;18.73;15.13;;;19.30;99.90;;;19.65;100.00;100614.13;5001190;28;20038;-76
2023/06/20 04:49:29;;;;;;;17.13;15.35;;;19.40;99.90;;;19.71;100.00;100617.69;5004393;28;20045;-77
2023/06/20 04:51:57;;;;;;;16.02;14.20;;;;;;;19.87;100.00;100623.22;5002907;28;20061;-76
2023/06/20 04:54:24;;;;;;;16.92;15.07;;;;;;;19.93;100.00;100628.50;4997436;28;20029;-77
2023/06/20 04:56:50;;;;;;;17.20;14.83;;;19.50;99.90;;;20.01;100.00;100623.50;4999124;28;20046;-78
2023/06/20 04:59:16;;;;;;;19.00;14.70;;;19.80;99.90;;;20.04;100.00;100622.94;4977077;28;20209;-78
2023/06/20 05:01:42;;;;;;;16.48;14.77;;;19.80;99.90;;;20.16;100.00;100623.44;4993664;28;20069;-78
2023/06/20 05:04:08;;;;;;;16.25;14.55;;;19.90;99.90;;;20.31;100.00;100635.56;4981611;28;20077;-76
2023/06/20 05:06:34;;;;;;;15.80;14.10;;;20.00;99.90;;;20.35;100.00;100622.81;4996266;28;20552;-79
2023/06/20 05:09:00;;;;;;;15.98;14.00;;;20.20;99.90;;;20.50;100.00;100633.00;4990982;28;20030;-77
2023/06/20 05:11:27;;;;;;;15.90;14.20;;;20.20;99.90;;;20.57;100.00;100633.53;4984320;28;20044;-80
2023/06/20 05:13:52;;;;;;;16.00;14.30;;;20.20;99.90;;;20.59;100.00;100647.09;4996076;28;20120;-76
2023/06/20 05:16:18;;;;;;;16.17;13.85;;;20.30;99.90;;;20.67;100.00;100644.56;4992682;28;20050;-78
2023/06/20 05:18:46;;;;;;;19.33;14.20;;;;;;;20.77;100.00;100640.91;4995361;28;20612;-78
2023/06/20 05:21:12;;;;;;;15.20;13.50;;;;;;;20.82;100.00;100651.13;4998741;28;20089;-79
2023/06/20 05:23:38;;;;;;;16.23;13.25;;;;;;;20.86;100.00;100645.88;4993478;28;20041;-77
2023/06/20 05:26:04;;;;;;;15.98;13.88;;;;;;;20.90;100.00;100650.56;5007132;28;20040;-77
2023/06/20 05:28:30;;;;;;;14.32;12.23;;;;;;;20.89;100.00;100640.59;4982104;28;20061;-77
2023/06/20 05:30:56;;;;;;;14.77;12.43;;;;;;;20.95;100.00;100644.97;4993328;28;20038;-77
2023/06/20 05:33:23;;;;;;;14.70;11.98;;;;;;;20.97;100.00;100651.06;4995610;28;20096;-77
2023/06/20 05:35:49;;;;;;;15.80;13.18;;;;;;;20.97;100.00;100644.69;4998795;28;20037;-77
2023/06/20 05:38:15;;;;;;;14.75;12.55;;;;;;;20.94;100.00;100659.13;4996990;28;20520;-77
2023/06/20 05:40:42;;;;;;;15.38;12.60;;;;;;;20.93;100.00;100657.47;4998820;28;20081;-77
2023/06/20 05:43:08;;;;;;;14.40;12.90;;;;;;;20.93;100.00;100663.00;5003025;28;20474;-76
2023/06/20 05:45:34;;;;;;;14.88;12.63;;;;;;;20.89;100.00;100661.91;5002231;28;20065;-77
2023/06/20 05:48:00;;;;;;;15.65;12.57;;;;;;;20.93;100.00;100655.53;5000225;28;20038;-77
2023/06/20 05:50:27;;;;;;;16.65;12.88;;;;;;;20.95;100.00;100660.78;5002552;28;20498;-77
2023/06/20 05:52:53;;;;;;;14.90;12.25;;;;;;;20.99;100.00;100661.88;4999579;28;20034;-76
2023/06/20 05:55:19;;;;;;;14.65;12.20;;;;;;;21.01;100.00;100675.44;5003229;28;20950;-76
2023/06/20 05:57:45;;;;;;;17.48;13.35;;;;;;;20.92;100.00;100683.53;5000789;28;20045;-77
2023/06/20 06:00:12;;;;;;;19.23;15.45;;;20.40;99.90;;;20.55;100.00;100707.78;5001566;28;20036;-79
2023/06/20 06:02:45;;;;;;;18.23;16.33;;;20.70;99.90;;;20.46;100.00;100707.56;5006507;28;20056;-79
2023/06/20 06:05:12;;;;;;;17.25;14.95;;;20.60;99.90;;;20.51;100.00;100702.00;4996606;28;20500;-77
2023/06/20 06:07:38;;;;;;;18.05;15.90;;;20.50;99.90;;;20.54;100.00;100706.97;4999410;28;20040;-78
2023/06/20 06:10:08;;;;;;;19.95;16.25;;;20.50;99.90;;;20.49;100.00;100697.84;5000043;28;20036;-78
2023/06/20 06:12:38;;;;;;;19.35;16.52;;;20.50;99.90;;;20.60;100.00;100696.69;4996641;28;20494;-78
2023/06/20 06:15:05;;;;;;;19.10;17.10;;;20.50;99.90;;;20.68;100.00;100701.63;4996006;28;20041;-77
2023/06/20 06:17:31;;;;;;;19.17;16.93;;;20.60;99.90;;;20.67;100.00;100699.13;4996120;28;20038;-79
2023/06/20 06:19:58;;;;;;;18.30;16.40;;;20.70;99.90;;;20.74;100.00;100701.63;5004023;28;20493;-79
2023/06/20 06:22:24;;;;;;;19.73;16.75;;;20.70;99.90;;;20.77;100.00;100703.81;5002410;28;20490;-79
2023/06/20 06:24:53;;;;;;;19.23;15.98;;;20.70;99.90;;;20.77;100.00;100701.88;5006039;28;20041;-79
2023/06/20 06:27:19;;;;;;;20.02;16.38;;;20.80;99.90;;;20.82;100.00;100707.44;5002991;28;20108;-78
2023/06/20 06:29:45;;;;;;;18.80;16.65;;;20.80;99.90;;;20.84;100.00;100694.09;5005639;28;20057;-79
2023/06/20 06:32:12;;;;;;;19.42;15.65;;;;;;;20.90;100.00;100692.16;5004998;28;20034;-79
2023/06/20 06:34:41;;;;;;;;;;;20.90;99.90;;;20.84;100.00;100698.84;5004579;28;20038;-79
2023/06/20 06:37:07;;;;;;;16.95;14.63;;;20.90;99.90;;;20.84;100.00;100699.66;5000441;28;20404;-78
2023/06/20 06:39:33;;;;;;;15.43;13.82;;;20.90;99.90;;;20.93;100.00;100687.97;5002611;28;20035;-79
2023/06/20 06:41:59;;;;;;;15.23;13.13;;;21.00;99.90;;;20.76;100.00;100680.81;4997721;28;20049;-81
2023/06/20 06:44:26;;;;;;;15.18;11.73;;;20.90;99.90;;;20.69;100.00;100677.53;4975017;28;20034;-79
2023/06/20 06:46:53;;;;;;;12.50;10.85;;;20.90;99.90;;;20.70;100.00;100677.25;5005239;28;20120;-79
2023/06/20 06:49:19;;;;;;;13.05;10.50;;;20.90;99.90;;;20.66;100.00;100687.25;4997821;28;20398;-79
2023/06/20 06:51:44;;;;;;;10.48;9.15;;;20.90;99.90;;;20.63;100.00;100675.88;5012395;28;20042;-78
2023/06/20 06:54:10;;;;;;;10.30;9.25;;;20.90;99.90;;;20.70;100.00;100684.75;5001371;28;20054;-79
2023/06/20 06:56:36;;;;;;;9.15;7.95;;;20.80;99.90;;;20.55;100.00;100674.53;4983312;28;20371;-78
2023/06/20 06:59:02;;;;;;;8.05;7.25;;;20.80;99.90;;;20.45;100.00;100680.97;4995508;28;20040;-77
2023/06/20 07:01:28;;;;;;;8.93;8.02;;;20.70;99.90;;;20.48;100.00;100676.78;4995301;28;20093;-77
2023/06/20 07:03:55;;;;;;;8.43;7.10;;;20.70;99.90;;;20.38;100.00;100680.41;5005927;28;20125;-77
2023/06/20 07:06:21;;;;;;;9.27;7.55;;;20.70;99.90;;;20.50;100.00;100680.94;4998103;28;20417;-81
2023/06/20 07:08:46;;;;;;;12.75;7.90;;;20.70;99.90;;;20.53;100.00;100688.69;5008090;28;20125;-81
2023/06/20 07:11:12;;;;;;;9.13;7.90;;;20.70;99.90;;;20.47;100.00;100684.28;5004376;28;20041;-80
2023/06/20 07:13:38;;;;;;;9.82;8.55;;;20.70;99.90;;;20.66;100.00;100691.94;4995577;28;20121;-81
2023/06/20 07:16:04;;;;;;;9.65;8.57;;;20.70;99.90;;;20.62;100.00;100700.00;5001392;28;20136;-81
2023/06/20 07:18:29;;;;;;;10.68;8.40;;;20.70;99.90;;;20.63;100.00;100698.06;5001788;28;20111;-82
2023/06/20 07:20:57;;;;;;;10.18;9.15;;;20.70;99.90;;;20.49;100.00;100706.16;5003146;28;20040;-81
2023/06/20 07:23:23;;;;;;;9.63;8.18;;;20.70;99.90;;;20.44;100.00;100704.25;4999739;28;20073;-81
2023/06/20 07:25:49;;;;;;;10.20;8.23;;;20.60;99.90;;;20.26;100.00;100698.19;4977519;28;20080;-82
2023/06/20 07:28:14;;;;;;;9.23;8.32;;;20.50;99.90;;;20.56;100.00;100687.28;4994898;28;20478;-83
2023/06/20 07:30:40;;;;;;;12.25;8.93;;;20.60;99.90;;;20.65;100.00;100696.66;5000059;28;20042;-81
2023/06/20 07:33:06;;;;;;;11.27;8.88;;;;;;;20.82;100.00;100695.50;5004328;28;20038;-80
2023/06/20 07:35:33;;;;;;;10.70;9.15;;;;;;;21.04;100.00;100689.56;4998687;28;20069;-80
2023/06/20 07:37:59;;;;;;;10.95;9.60;;;;;;;21.46;100.00;100703.16;4998472;28;20038;-81
2023/06/20 07:40:25;;;;;;;11.00;9.65;;;;;;;21.75;100.00;100702.38;4997420;28;20121;-81
2023/06/20 07:42:51;;;;;;;12.50;11.20;;;;;;;21.97;100.00;100699.97;4994940;28;20497;-81
2023/06/20 07:45:17;;;;;;;13.13;11.10;;;;;;;22.09;100.00;100687.63;4994638;28;20046;-82
2023/06/20 07:47:43;;;;;;;10.93;9.80;;;;;;;22.34;100.00;100691.25;4994535;28;20034;-81
2023/06/20 07:50:09;;;;;;;11.10;9.90;;;;;;;22.48;100.00;100685.84;4990289;28;20030;-81
2023/06/20 07:52:36;;;;;;;9.73;8.75;;;;;;;22.68;100.00;100670.84;4994307;28;20122;-83
2023/06/20 07:55:04;;;;;;;10.30;9.30;;;;;;;22.68;100.00;100666.13;4999709;28;20490;-81
2023/06/20 07:57:30;;;;;;;10.68;9.57;;;;;;;22.76;100.00;100675.75;5000048;28;20050;-82
2023/06/20 07:59:56;;;;;;;11.45;10.30;;;;;;;22.76;100.00;100669.38;5004352;28;20061;-82
2023/06/20 08:02:22;;;;;;;13.77;10.80;;;;;;;22.74;100.00;100666.88;4999441;28;20038;-81
2023/06/20 08:04:49;;;;;;;11.38;10.23;;;;;;;22.80;100.00;100662.06;4986753;28;20039;-81
2023/06/20 08:07:15;;;;;;;11.88;10.68;;;;;;;23.04;100.00;100662.00;4999361;28;20077;-81
2023/06/20 08:09:41;;;;;;;11.77;10.68;;;;;;;23.32;100.00;100656.59;4997016;28;20449;-81
2023/06/20 08:12:09;;;;;;;11.25;10.15;;;;;;;23.60;100.00;100655.88;5002104;28;20026;-82
2023/06/20 08:14:37;;;;;;;12.00;10.48;;;;;;;23.53;100.00;100656.25;4999035;28;20034;-82
2023/06/20 08:17:03;;;;;;;14.73;10.93;;;;;;;23.32;100.00;100653.00;5000199;28;20062;-82
2023/06/20 08:19:29;;;;;;;12.23;10.43;;;;;;;23.52;100.00;100662.94;5004226;28;20048;-81
2023/06/20 08:21:55;;;;;;;11.15;10.05;;;;;;;23.75;100.00;100650.03;5003898;28;20040;-81
2023/06/20 08:24:21;;;;;;;11.32;10.13;;;;;;;23.98;100.00;100639.84;4991697;28;20038;-81
2023/06/20 08:26:47;;;;;;;12.43;11.23;;;;;;;24.09;100.00;100636.88;4993832;28;20034;-82
2023/06/20 08:29:14;;;;;;;12.30;10.80;;;;;;;24.34;100.00;100646.69;4999636;28;20121;-82
2023/06/20 08:31:40;;;;;;;12.93;11.37;;;;;;;24.36;100.00;100624.06;4985144;28;20038;-82
2023/06/20 08:34:06;;;;;;;12.70;11.40;;;;;;;24.37;100.00;100622.94;5001456;28;20038;-82
2023/06/20 08:36:33;;;;;;;14.38;12.98;;;;;;;23.97;100.00;100627.06;5000142;28;20112;-82
2023/06/20 08:39:01;;;;;;;13.38;12.05;;;;;;;23.83;100.00;100637.34;4990396;28;20033;-82
2023/06/20 08:41:28;;;;;;;14.45;12.52;;;;;;;23.78;100.00;100634.66;4993597;28;20038;-82
2023/06/20 08:43:54;;;;;;;15.63;13.25;;;;;;;23.61;100.00;100644.44;4998090;28;20429;-81
2023/06/20 08:46:20;;;;;;;14.85;13.20;;;;;;;23.61;100.00;100643.59;4993409;28;20042;-83
2023/06/20 08:48:46;;;;;;;14.38;12.85;;;;;;;23.23;100.00;100641.69;4998191;28;20042;-82
2023/06/20 08:51:16;;;;;;;15.10;13.60;;;;;;;23.26;100.00;100649.47;4993352;28;20034;-81
2023/06/20 08:53:46;;;;;;;15.63;13.45;;;;;;;23.25;100.00;100642.25;4975820;28;20030;-82
2023/06/20 08:56:14;;;;;;;15.23;13.63;;;;;;;23.36;100.00;100642.91;4998333;28;20406;-82
2023/06/20 08:58:41;;;;;;;14.60;12.80;;;;;;;23.58;100.00;100642.25;5001674;28;20485;-81
2023/06/20 09:01:08;;;;;;;14.55;11.60;;;;;;;23.75;100.00;100629.69;4996477;28;20245;-81
2023/06/20 09:03:35;;;;;;;10.02;9.02;;;;;;;23.98;100.00;100623.13;5004536;28;20104;-81
2023/06/20 09:06:02;;;;;;;9.35;8.32;;;;;;;24.02;100.00;100623.38;5002856;28;20033;-81
2023/06/20 09:08:39;;;;;;;8.73;7.83;;;;;;;24.31;100.00;100625.03;5002046;28;20068;-81
2023/06/20 09:11:09;;;;;;;8.50;7.60;;;;;;;24.26;100.00;100617.59;4995835;28;20736;-82
2023/06/20 09:13:36;;;;;;;8.68;7.72;;;;;;;24.27;100.00;100608.09;4999532;28;20042;-81
2023/06/20 09:16:09;;;;;;;8.95;8.02;;;;;;;24.45;100.00;100607.44;4997950;28;20124;-81
2023/06/20 09:18:40;;;;;;;9.07;8.10;;;;;;;24.65;100.00;100606.16;4999258;28;20043;-81
2023/06/20 09:21:13;;;;;;;8.65;6.97;;;;;;;25.03;100.00;100608.66;4996347;28;20113;-81
2023/06/20 09:23:40;;;;;;;10.30;7.47;;;;;;;25.13;100.00;100608.41;5002299;28;20216;-82
2023/06/20 09:26:17;;;;;;;9.52;7.32;;;;;;;25.41;100.00;100613.03;4996512;28;20065;-82
2023/06/20 09:28:44;;;;;;;8.52;7.03;;;;;;;25.68;100.00;100619.63;4992967;28;20038;-82
2023/06/20 09:31:10;;;;;;;8.47;7.10;;;;;;;26.07;100.00;100608.78;4992823;28;20420;-81
2023/06/20 09:33:37;;;;;;;8.60;6.97;;;;;;;26.50;100.00;100610.91;4992831;28;20061;-82
2023/06/20 09:36:14;;;;;;;8.65;6.90;;;;;;;26.75;100.00;100607.66;4992565;28;20046;-82
2023/06/20 09:38:52;;;;;;;10.55;8.60;;;;;;;26.51;98.51;100614.53;4992814;28;20043;-81
2023/06/20 09:41:18;;;;;;;9.35;8.13;;;;;;;26.15;100.00;100616.38;4998797;28;20429;-82
2023/06/20 09:43:45;;;;;;;8.32;7.53;;;;;;;26.11;100.00;100615.38;4993270;28;20448;-82
2023/06/20 09:46:11;;;;;;;8.80;7.97;;;;;;;26.16;100.00;100625.59;5001920;28;20046;-82
2023/06/20 09:48:39;;;;;;;8.90;8.00;;;;;;;26.23;100.00;100618.41;5007721;28;20084;-80
2023/06/20 09:51:06;;;;;;;;;;;;;;;26.16;100.00;100618.06;4993667;28;20042;-81
2023/06/20 09:53:54;;;;;;;9.60;7.93;;;;;;;26.15;100.00;100613.59;4997413;28;20338;-82
2023/06/20 09:56:24;;;;;;;9.15;8.18;;;;;;;25.87;100.00;100613.81;4997992;28;20042;-81
2023/06/20 09:58:51;;;;;;;9.35;8.40;;;;;;;25.75;100.00;100621.97;5001647;28;20049;-80
2023/06/20 10:01:20;;;;;;;9.50;8.50;;;;;;;25.84;100.00;100620.03;5002283;28;20033;-80
2023/06/20 10:03:47;;;;;;;9.82;8.68;;;;;;;25.96;100.00;100600.69;4998848;28;20047;-81
2023/06/20 10:06:14;;;;;;;9.23;8.32;;;;;;;26.20;100.00;100607.06;4993491;28;20042;-81
2023/06/20 10:08:41;;;;;;;9.73;8.82;;;;;;;26.56;100.00;100614.38;4991519;28;20039;-82
2023/06/20 10:11:08;;;;;;;9.30;8.25;;;;;;;26.84;99.32;100594.47;4991650;28;20612;-82
2023/06/20 10:13:35;;;;;;;8.98;7.40;;;;;;;26.70;99.65;100584.28;4998228;28;20061;-82
2023/06/20 10:16:01;;;;;;;8.05;7.25;;;;;;;27.55;98.50;100584.06;4995976;28;20145;-82
2023/06/20 10:18:30;;;;;;;8.98;8.07;;;;;;;27.75;91.89;100571.31;4996725;28;20382;-81
2023/06/20 10:20:56;;;;;;;7.05;6.35;;;;;;;28.06;91.44;100561.75;4996952;28;20125;-81
2023/06/20 10:23:31;;;;;;;8.32;7.28;;;;;;;28.59;87.93;100557.81;4991618;28;20129;-78
2023/06/20 10:25:58;;;;;;;8.40;7.50;;;;;;;28.96;79.71;100544.00;4992581;28;20080;-82
2023/06/20 10:28:25;;;;;;;7.72;6.95;;;;;;;29.40;74.67;100543.53;4999878;28;20049;-81